createdAt,value
2023-01-30T00:01:49.588Z,26.59
2023-01-30T00:04:18.887Z,26.56
2023-01-30T00:06:46.807Z,26.97
2023-01-30T00:09:15.124Z,26.53
2023-01-30T00:11:43.068Z,26.67
2023-01-30T00:14:11.258Z,26.83
2023-01-30T00:16:39.201Z,26.82
2023-01-30T00:19:07.140Z,26.79
2023-01-30T00:21:36.471Z,26.73
2023-01-30T00:24:05.146Z,26.89
2023-01-30T00:26:33.087Z,27.04
2023-01-30T00:29:01.004Z,26.55
2023-01-30T00:31:28.953Z,26.88
2023-01-30T00:33:57.196Z,26.51
2023-01-30T00:36:25.111Z,26.72
2023-01-30T00:38:54.368Z,26.53
2023-01-30T00:41:22.765Z,26.61
2023-01-30T00:44:08.125Z,26.96
2023-01-30T00:46:53.397Z,26.87
2023-01-30T00:49:21.599Z,26.77
2023-01-30T00:51:49.509Z,26.51
2023-01-30T00:54:18.780Z,26.65
2023-01-30T00:56:46.742Z,27.10
2023-01-30T00:59:14.662Z,26.47
2023-01-30T01:01:42.622Z,27.01
2023-01-30T01:04:11.836Z,26.81
2023-01-30T01:06:39.723Z,26.77
2023-01-30T01:09:07.893Z,27.02
2023-01-30T01:11:37.282Z,27.08
2023-01-30T01:14:05.953Z,26.66
2023-01-30T01:16:36.067Z,26.51
2023-01-30T01:19:04.286Z,26.91
2023-01-30T01:21:32.185Z,26.71
2023-01-30T01:24:01.108Z,26.55
2023-01-30T01:26:29.177Z,26.98
2023-01-30T01:28:58.612Z,26.69
2023-01-30T01:31:26.706Z,26.99
2023-01-30T01:33:54.939Z,26.75
2023-01-30T01:36:52.150Z,26.99
2023-01-30T01:39:10.847Z,26.60
2023-01-30T01:41:37.779Z,26.79
2023-01-30T01:44:08.015Z,26.68
2023-01-30T01:46:38.143Z,26.88
2023-01-30T01:49:08.655Z,26.79
2023-01-30T01:51:37.936Z,26.69
2023-01-30T01:54:08.630Z,26.86
2023-01-30T01:56:36.828Z,26.71
2023-01-30T01:59:07.425Z,26.89
2023-01-30T02:01:35.339Z,27.07
2023-01-30T02:04:04.665Z,26.95
2023-01-30T02:06:32.647Z,26.87
2023-01-30T02:09:03.353Z,26.62
2023-01-30T02:11:32.723Z,26.61
2023-01-30T02:14:01.184Z,26.80
2023-01-30T02:16:30.425Z,27.03
2023-01-30T02:18:58.302Z,27.08
2023-01-30T02:21:52.310Z,26.96
2023-01-30T02:24:33.204Z,26.72
2023-01-30T02:27:23.637Z,26.73
2023-01-30T02:30:08.699Z,26.93
2023-01-30T02:32:39.274Z,27.11
2023-01-30T02:35:11.010Z,26.93
2023-01-30T02:37:46.857Z,26.59
2023-01-30T02:40:19.864Z,26.56
2023-01-30T02:42:52.235Z,26.54
2023-01-30T02:45:23.606Z,26.86
2023-01-30T02:47:55.850Z,26.63
2023-01-30T02:50:25.421Z,27.14
2023-01-30T02:52:53.806Z,26.66
2023-01-30T02:55:22.471Z,26.67
2023-01-30T02:57:50.384Z,26.90
2023-01-30T03:00:20.656Z,26.69
2023-01-30T03:03:09.165Z,26.59
2023-01-30T03:05:42.958Z,27.20
2023-01-30T03:08:16.324Z,26.91
2023-01-30T03:10:45.142Z,26.82
2023-01-30T03:13:17.506Z,27.16
2023-01-30T03:15:48.771Z,26.67
2023-01-30T03:18:18.089Z,26.92
2023-01-30T03:20:45.981Z,26.91
2023-01-30T03:23:14.682Z,27.10
2023-01-30T03:25:43.391Z,26.69
2023-01-30T03:28:11.375Z,27.14
2023-01-30T03:30:39.283Z,26.68
2023-01-30T03:33:07.499Z,26.71
2023-01-30T03:35:36.788Z,27.22
2023-01-30T03:38:04.668Z,26.79
2023-01-30T03:40:32.543Z,26.98
2023-01-30T03:43:00.709Z,27.03
2023-01-30T03:45:28.621Z,27.09
2023-01-30T03:47:56.584Z,26.91
2023-01-30T03:50:24.468Z,26.89
2023-01-30T03:52:54.091Z,26.69
2023-01-30T03:55:22.334Z,27.25
2023-01-30T03:57:50.217Z,26.68
2023-01-30T04:00:19.013Z,26.57
2023-01-30T04:02:46.928Z,26.97
2023-01-30T04:05:14.924Z,26.76
2023-01-30T04:07:43.259Z,26.80
2023-01-30T04:10:16.273Z,26.85
2023-01-30T04:12:44.469Z,27.11
2023-01-30T04:15:12.693Z,27.15
2023-01-30T04:17:40.593Z,27.18
2023-01-30T04:20:09.858Z,26.81
2023-01-30T04:22:38.074Z,27.03
2023-01-30T04:25:06.554Z,27.09
2023-01-30T04:27:35.860Z,27.07
2023-01-30T04:30:03.834Z,26.79
2023-01-30T04:32:32.004Z,26.99
2023-01-30T04:34:59.922Z,26.83
2023-01-30T04:37:27.792Z,26.80
2023-01-30T04:39:55.666Z,26.83
2023-01-30T04:42:23.575Z,27.13
2023-01-30T04:44:52.893Z,26.88
2023-01-30T04:47:20.831Z,27.13
2023-01-30T04:49:48.718Z,26.91
2023-01-30T04:52:16.989Z,27.11
2023-01-30T04:54:44.872Z,27.20
2023-01-30T04:57:12.743Z,27.11
2023-01-30T04:59:40.757Z,27.35
2023-01-30T05:02:10.073Z,27.16
2023-01-30T05:04:37.940Z,27.38
2023-01-30T05:07:05.820Z,27.06
2023-01-30T05:09:33.711Z,26.85
2023-01-30T05:12:01.836Z,27.11
2023-01-30T05:14:29.733Z,27.16
2023-01-30T05:16:57.706Z,26.88
2023-01-30T05:19:26.959Z,27.29
2023-01-30T05:21:55.113Z,26.99
2023-01-30T05:24:23.303Z,27.25
2023-01-30T05:26:52.444Z,26.90
2023-01-30T05:29:20.306Z,27.02
2023-01-30T05:31:48.555Z,27.11
2023-01-30T05:34:16.489Z,26.94
2023-01-30T05:36:45.795Z,27.02
2023-01-30T05:39:13.698Z,26.99
2023-01-30T05:41:41.567Z,27.43
2023-01-30T05:44:11.661Z,27.09
2023-01-30T05:46:40.351Z,27.40
2023-01-30T05:49:08.315Z,26.91
2023-01-30T05:51:36.236Z,26.88
2023-01-30T05:54:06.031Z,27.54
2023-01-30T05:56:34.240Z,26.93
2023-01-30T05:59:02.453Z,26.90
2023-01-30T06:01:30.505Z,26.97
2023-01-30T06:03:59.139Z,27.41
2023-01-30T06:06:27.051Z,26.99
2023-01-30T06:08:55.042Z,27.29
2023-01-30T06:11:24.535Z,27.23
2023-01-30T06:13:52.817Z,27.00
2023-01-30T06:16:20.940Z,27.32
2023-01-30T06:18:49.006Z,26.97
2023-01-30T06:21:17.093Z,27.27
2023-01-30T06:23:46.416Z,27.03
2023-01-30T06:26:14.530Z,27.42
2023-01-30T06:28:44.303Z,27.53
2023-01-30T06:31:12.348Z,27.53
2023-01-30T06:33:40.757Z,27.17
2023-01-30T06:36:09.407Z,27.18
2023-01-30T06:38:37.272Z,27.29
2023-01-30T06:41:05.614Z,27.18
2023-01-30T06:43:33.506Z,27.22
2023-01-30T06:46:02.887Z,27.15
2023-01-30T06:48:30.804Z,27.15
2023-01-30T06:50:58.702Z,27.18
2023-01-30T06:53:30.461Z,27.21
2023-01-30T06:55:58.837Z,27.47
2023-01-30T06:58:26.765Z,27.05
2023-01-30T07:00:54.803Z,27.27
2023-01-30T07:03:24.446Z,27.14
2023-01-30T07:05:52.334Z,27.15
2023-01-30T07:08:20.452Z,27.46
2023-01-30T07:10:49.191Z,27.61
2023-01-30T07:13:17.326Z,27.62
2023-01-30T07:15:45.832Z,27.32
2023-01-30T07:18:13.826Z,27.20
2023-01-30T07:20:43.323Z,27.10
2023-01-30T07:23:11.504Z,27.53
2023-01-30T07:25:39.444Z,27.33
2023-01-30T07:28:07.418Z,27.29
2023-01-30T07:30:36.197Z,27.70
2023-01-30T07:33:05.258Z,27.47
2023-01-30T07:35:35.272Z,27.61
2023-01-30T07:38:04.544Z,27.61
2023-01-30T07:40:32.490Z,27.56
2023-01-30T07:43:01.283Z,27.65
2023-01-30T07:45:30.613Z,27.62
2023-01-30T07:47:58.467Z,27.66
2023-01-30T07:50:27.003Z,27.28
2023-01-30T07:52:54.873Z,27.13
2023-01-30T07:55:24.121Z,27.35
2023-01-30T07:57:51.990Z,27.54
2023-01-30T08:00:20.731Z,27.80
2023-01-30T08:02:49.085Z,27.80
2023-01-30T08:05:17.159Z,27.21
2023-01-30T08:07:45.059Z,27.21
2023-01-30T08:10:13.227Z,27.47
2023-01-30T08:12:42.848Z,27.56
2023-01-30T08:15:11.454Z,27.25
2023-01-30T08:17:39.382Z,27.29
2023-01-30T08:20:08.363Z,27.23
2023-01-30T08:22:36.508Z,27.25
2023-01-30T08:25:05.140Z,27.85
2023-01-30T08:27:33.089Z,27.39
2023-01-30T08:30:02.363Z,27.75
2023-01-30T08:32:30.628Z,27.45
2023-01-30T08:34:58.531Z,27.78
2023-01-30T08:37:26.484Z,27.33
2023-01-30T08:39:54.416Z,27.93
2023-01-30T08:42:22.723Z,27.61
2023-01-30T08:44:50.603Z,27.79
2023-01-30T08:47:19.870Z,27.90
2023-01-30T08:49:47.777Z,27.70
2023-01-30T08:52:15.956Z,27.32
2023-01-30T08:54:43.942Z,27.79
2023-01-30T08:57:11.880Z,27.91
2023-01-30T08:59:39.801Z,27.66
2023-01-30T09:02:09.909Z,27.85
2023-01-30T09:04:39.206Z,27.86
2023-01-30T09:07:07.095Z,27.48
2023-01-30T09:09:35.168Z,27.62
2023-01-30T09:12:03.349Z,27.34
2023-01-30T09:14:31.257Z,27.79
2023-01-30T09:16:59.137Z,27.78
2023-01-30T09:19:27.878Z,27.87
2023-01-30T09:21:57.450Z,27.61
2023-01-30T09:24:26.692Z,27.41
2023-01-30T09:26:57.132Z,27.74
2023-01-30T09:29:25.063Z,27.44
2023-01-30T09:31:52.988Z,27.73
2023-01-30T09:34:21.014Z,27.84
2023-01-30T09:36:48.850Z,27.34
2023-01-30T09:39:18.415Z,27.49
2023-01-30T09:41:59.177Z,27.37
2023-01-30T09:44:52.837Z,27.46
2023-01-30T09:47:24.495Z,27.69
2023-01-30T09:49:56.419Z,27.50
2023-01-30T09:52:28.749Z,27.93
2023-01-30T09:55:01.832Z,27.51
2023-01-30T09:57:29.776Z,27.87
2023-01-30T09:59:59.533Z,27.52
2023-01-30T10:02:48.692Z,27.68
2023-01-30T10:05:16.642Z,27.80
2023-01-30T10:07:52.341Z,27.68
2023-01-30T10:10:24.197Z,27.62
2023-01-30T10:12:58.267Z,27.76
2023-01-30T10:15:44.957Z,27.86
2023-01-30T10:18:43.444Z,28.02
2023-01-30T10:21:16.276Z,27.78
2023-01-30T10:23:52.257Z,27.50
2023-01-30T10:26:22.951Z,27.67
2023-01-30T10:29:06.184Z,27.58
2023-01-30T10:31:37.736Z,27.62
2023-01-30T10:34:06.965Z,28.02
2023-01-30T10:36:38.166Z,27.80
2023-01-30T10:39:07.120Z,27.74
2023-01-30T10:41:37.952Z,27.69
2023-01-30T10:44:07.542Z,27.61
2023-01-30T10:46:49.116Z,27.84
2023-01-30T10:49:19.289Z,27.70
2023-01-30T10:51:51.120Z,27.49
2023-01-30T10:54:21.543Z,27.86
2023-01-30T10:56:53.220Z,27.98
2023-01-30T10:59:24.114Z,28.14
2023-01-30T11:01:58.940Z,27.86
2023-01-30T11:04:31.268Z,27.92
2023-01-30T11:07:00.018Z,27.93
2023-01-30T11:09:39.845Z,27.69
2023-01-30T11:12:09.401Z,27.83
2023-01-30T11:14:54.119Z,27.63
2023-01-30T11:17:22.716Z,27.64
2023-01-30T11:19:55.960Z,27.63
2023-01-30T11:22:25.834Z,27.69
2023-01-30T11:25:01.938Z,27.68
2023-01-30T11:27:32.173Z,27.74
2023-01-30T11:30:13.631Z,27.74
2023-01-30T11:32:42.391Z,27.63
2023-01-30T11:35:27.093Z,27.84
2023-01-30T11:37:55.091Z,28.02
2023-01-30T11:40:28.283Z,27.82
2023-01-30T11:43:04.248Z,28.10
2023-01-30T11:45:36.128Z,27.64
2023-01-30T11:48:06.894Z,27.74
2023-01-30T11:50:41.689Z,27.84
2023-01-30T11:53:29.671Z,27.81
2023-01-30T11:56:05.269Z,27.62
2023-01-30T11:58:37.228Z,28.05
2023-01-30T12:01:06.170Z,27.70
2023-01-30T12:03:34.551Z,27.97
2023-01-30T12:06:02.516Z,27.85
2023-01-30T12:08:41.935Z,28.16
2023-01-30T12:11:26.162Z,28.13
2023-01-30T12:13:55.988Z,27.63
2023-01-30T12:16:24.863Z,27.90
2023-01-30T12:18:57.230Z,27.76
2023-01-30T12:21:33.891Z,28.00
2023-01-30T12:24:06.629Z,27.73
2023-01-30T12:26:36.453Z,27.82
2023-01-30T12:29:11.408Z,28.05
2023-01-30T12:31:41.733Z,28.17
2023-01-30T12:34:10.041Z,27.69
2023-01-30T12:36:42.674Z,28.17
2023-01-30T12:39:16.195Z,28.22
2023-01-30T12:41:55.902Z,28.08
2023-01-30T12:44:31.843Z,27.91
2023-01-30T12:47:07.503Z,28.19
2023-01-30T12:49:42.576Z,27.68
2023-01-30T12:52:25.341Z,28.07
2023-01-30T12:54:57.204Z,28.21
2023-01-30T12:57:28.924Z,27.82
2023-01-30T13:00:05.202Z,28.04
2023-01-30T13:02:52.027Z,28.10
2023-01-30T13:05:24.782Z,27.99
2023-01-30T13:08:03.453Z,28.02
2023-01-30T13:10:34.732Z,27.57
2023-01-30T13:13:08.611Z,27.75
2023-01-30T13:15:42.239Z,27.93
2023-01-30T13:18:14.711Z,27.87
2023-01-30T13:20:51.498Z,28.08
2023-01-30T13:23:20.175Z,28.12
2023-01-30T13:25:52.809Z,27.68
2023-01-30T13:28:24.453Z,27.69
2023-01-30T13:30:54.922Z,27.94
2023-01-30T13:33:24.289Z,27.99
2023-01-30T13:35:52.928Z,27.86
2023-01-30T13:38:22.008Z,27.71
2023-01-30T13:40:50.771Z,27.81
2023-01-30T13:43:21.629Z,27.62
2023-01-30T13:45:50.206Z,28.16
2023-01-30T13:48:25.023Z,27.77
2023-01-30T13:51:00.533Z,27.70
2023-01-30T13:53:31.222Z,27.82
2023-01-30T13:55:59.847Z,27.75
2023-01-30T13:58:37.224Z,27.64
2023-01-30T14:01:05.309Z,28.22
2023-01-30T14:03:35.265Z,28.05
2023-01-30T14:06:26.013Z,27.85
2023-01-30T14:08:59.206Z,27.69
2023-01-30T14:11:48.146Z,27.97
2023-01-30T14:14:25.783Z,27.87
2023-01-30T14:16:54.710Z,28.22
2023-01-30T14:19:36.706Z,28.08
2023-01-30T14:22:07.057Z,27.76
2023-01-30T14:24:34.945Z,27.66
2023-01-30T14:27:08.635Z,28.03
2023-01-30T14:29:56.058Z,28.25
2023-01-30T14:32:55.519Z,27.62
2023-01-30T14:35:30.745Z,28.17
2023-01-30T14:38:17.353Z,27.70
2023-01-30T14:40:49.800Z,27.73
2023-01-30T14:43:53.014Z,27.90
2023-01-30T14:46:54.595Z,28.03
2023-01-30T14:49:29.570Z,27.67
2023-01-30T14:51:59.183Z,27.74
2023-01-30T14:54:41.893Z,28.16
2023-01-30T14:57:27.577Z,27.90
2023-01-30T15:00:15.069Z,27.68
2023-01-30T15:02:44.795Z,27.75
2023-01-30T15:05:14.486Z,27.60
2023-01-30T15:07:45.057Z,27.69
2023-01-30T15:10:21.124Z,28.08
2023-01-30T15:13:07.851Z,27.73
2023-01-30T15:15:39.523Z,27.67
2023-01-30T15:18:15.696Z,28.08
2023-01-30T15:20:50.580Z,27.65
2023-01-30T15:23:50.053Z,28.10
2023-01-30T15:26:26.381Z,27.81
2023-01-30T15:28:58.129Z,28.16
2023-01-30T15:31:26.471Z,27.82
2023-01-30T15:33:56.784Z,27.85
2023-01-30T15:36:27.186Z,27.96
2023-01-30T15:39:01.027Z,27.65
2023-01-30T15:41:30.279Z,27.96
2023-01-30T15:44:40.828Z,28.16
2023-01-30T15:47:24.770Z,27.76
2023-01-30T15:49:56.169Z,28.11
2023-01-30T15:52:28.889Z,28.04
2023-01-30T15:54:59.865Z,27.77
2023-01-30T15:57:30.601Z,27.86
2023-01-30T15:59:58.511Z,27.80
2023-01-30T16:02:29.815Z,27.62
2023-01-30T16:05:14.437Z,27.63
2023-01-30T16:07:42.402Z,27.88
2023-01-30T16:10:15.453Z,27.88
2023-01-30T16:12:43.611Z,27.78
2023-01-30T16:18:08.053Z,27.91
2023-01-30T16:20:48.759Z,28.15
2023-01-30T16:23:24.506Z,28.03
2023-01-30T16:25:54.129Z,28.13
2023-01-30T16:28:22.074Z,27.98
2023-01-30T16:30:50.054Z,27.68
2023-01-30T16:33:18.432Z,28.09
2023-01-30T16:35:46.465Z,27.88
2023-01-30T16:38:30.113Z,27.75
2023-01-30T16:41:01.120Z,28.26
2023-01-30T16:43:29.141Z,27.89
2023-01-30T16:46:33.092Z,28.11
2023-01-30T16:49:03.911Z,27.78
2023-01-30T16:51:31.862Z,27.61
2023-01-30T16:54:02.550Z,28.12
2023-01-30T16:56:32.619Z,28.18
2023-01-30T16:59:00.572Z,27.98
2023-01-30T17:01:39.524Z,27.99
2023-01-30T17:04:09.322Z,27.70
2023-01-30T17:06:39.680Z,27.67
2023-01-30T17:09:09.277Z,27.69
2023-01-30T17:11:38.760Z,28.10
2023-01-30T17:14:21.753Z,27.99
2023-01-30T17:17:01.343Z,27.55
2023-01-30T17:19:29.367Z,27.99
2023-01-30T17:21:57.552Z,27.98
2023-01-30T17:24:25.802Z,28.18
2023-01-30T17:26:59.081Z,27.68
2023-01-30T17:29:41.966Z,27.78
2023-01-30T17:32:11.475Z,27.86
2023-01-30T17:34:41.210Z,28.13
2023-01-30T17:37:10.674Z,28.05
2023-01-30T17:39:38.545Z,27.65
2023-01-30T17:42:10.537Z,28.11
2023-01-30T17:44:38.468Z,27.94
2023-01-30T17:47:06.528Z,27.94
2023-01-30T17:49:34.374Z,27.61
2023-01-30T17:52:02.556Z,28.14
2023-01-30T17:54:30.936Z,28.10
2023-01-30T17:57:01.213Z,28.11
2023-01-30T17:59:31.698Z,27.64
2023-01-30T18:02:00.002Z,28.17
2023-01-30T18:04:27.915Z,27.70
2023-01-30T18:06:57.080Z,27.85
2023-01-30T18:09:25.332Z,27.62
2023-01-30T18:11:53.477Z,27.69
2023-01-30T18:14:22.818Z,27.70
2023-01-30T18:16:52.873Z,27.62
2023-01-30T18:19:23.996Z,27.86
2023-01-30T18:21:52.387Z,28.15
2023-01-30T18:24:20.370Z,28.16
2023-01-30T18:26:48.475Z,27.69
2023-01-30T18:29:16.522Z,27.85
2023-01-30T18:31:44.448Z,27.74
2023-01-30T18:34:14.408Z,27.62
2023-01-30T18:36:42.324Z,27.72
2023-01-30T18:39:10.299Z,28.01
2023-01-30T18:41:38.235Z,27.67
2023-01-30T18:44:07.109Z,27.93
2023-01-30T18:46:35.225Z,27.93
2023-01-30T18:49:03.213Z,28.16
2023-01-30T18:51:34.212Z,27.81
2023-01-30T18:54:02.226Z,28.05
2023-01-30T18:56:31.664Z,28.03
2023-01-30T18:59:02.422Z,28.22
2023-01-30T19:01:31.016Z,28.22
2023-01-30T19:04:00.969Z,27.66
2023-01-30T19:06:29.237Z,28.09
2023-01-30T19:08:58.949Z,28.04
2023-01-30T19:11:44.707Z,28.23
2023-01-30T19:14:14.267Z,27.91
2023-01-30T19:16:42.190Z,27.63
2023-01-30T19:19:10.427Z,27.66
2023-01-30T19:21:38.534Z,27.93
2023-01-30T19:24:09.120Z,27.81
2023-01-30T19:26:37.024Z,28.11
2023-01-30T19:29:04.938Z,27.51
2023-01-30T19:31:32.978Z,27.60
2023-01-30T19:34:02.311Z,27.92
2023-01-30T19:36:31.761Z,27.86
2023-01-30T19:39:00.053Z,27.90
2023-01-30T19:41:30.456Z,27.90
2023-01-30T19:43:59.027Z,28.15
2023-01-30T19:46:28.750Z,27.91
2023-01-30T19:48:56.773Z,27.99
2023-01-30T19:51:25.167Z,27.84
2023-01-30T19:53:54.141Z,28.12
2023-01-30T19:56:22.604Z,27.72
2023-01-30T19:58:51.975Z,27.98
2023-01-30T20:01:21.409Z,28.00
2023-01-30T20:03:49.678Z,28.04
2023-01-30T20:06:18.599Z,28.20
2023-01-30T20:08:48.212Z,27.61
2023-01-30T20:11:17.573Z,27.94
2023-01-30T20:13:46.298Z,27.90
2023-01-30T20:16:18.650Z,28.11
2023-01-30T20:18:48.301Z,28.14
2023-01-30T20:21:17.676Z,27.88
2023-01-30T20:23:46.265Z,28.06
2023-01-30T20:26:15.425Z,28.02
2023-01-30T20:28:43.339Z,28.20
2023-01-30T20:31:12.320Z,27.92
2023-01-30T20:33:41.901Z,28.17
2023-01-30T20:36:10.816Z,28.16
2023-01-30T20:38:41.342Z,28.09
2023-01-30T20:41:10.161Z,27.99
2023-01-30T20:43:38.755Z,27.99
2023-01-30T20:46:07.383Z,27.67
2023-01-30T20:48:35.292Z,28.16
2023-01-30T20:51:05.685Z,27.76
2023-01-30T20:53:34.051Z,27.83
2023-01-30T20:56:02.571Z,27.61
2023-01-30T20:58:30.609Z,27.57
2023-01-30T21:00:58.594Z,28.03
2023-01-30T21:03:26.874Z,27.77
2023-01-30T21:05:58.235Z,27.79
2023-01-30T21:08:27.587Z,28.18
2023-01-30T21:10:55.601Z,28.21
2023-01-30T21:13:24.599Z,27.89
2023-01-30T21:16:01.636Z,27.61
2023-01-30T21:18:30.990Z,27.62
2023-01-30T21:20:58.892Z,28.04
2023-01-30T21:23:28.552Z,28.15
2023-01-30T21:25:56.671Z,27.88
2023-01-30T21:28:24.619Z,28.04
2023-01-30T21:30:52.600Z,27.92
2023-01-30T21:33:20.837Z,27.70
2023-01-30T21:35:48.694Z,27.68
2023-01-30T21:38:34.041Z,28.15
2023-01-30T21:41:21.241Z,27.93
2023-01-30T21:43:49.454Z,28.09
2023-01-30T21:46:17.774Z,27.93
2023-01-30T21:48:46.238Z,28.03
2023-01-30T21:51:14.810Z,28.06
2023-01-30T21:53:42.673Z,27.57
2023-01-30T21:56:12.028Z,28.23
2023-01-30T21:58:40.104Z,27.85
2023-01-30T22:01:08.415Z,28.08
2023-01-30T22:03:36.736Z,27.67
2023-01-30T22:06:05.022Z,28.12
2023-01-30T22:08:32.925Z,27.94
2023-01-30T22:11:08.205Z,27.57
2023-01-30T22:13:38.677Z,28.08
2023-01-30T22:16:07.825Z,27.83
2023-01-30T22:18:36.406Z,27.69
2023-01-30T22:21:05.259Z,28.24
2023-01-30T22:23:34.895Z,28.18
2023-01-30T22:26:02.797Z,27.92
2023-01-30T22:28:30.923Z,27.69
2023-01-30T22:31:03.950Z,27.55
2023-01-30T22:33:32.253Z,27.85
2023-01-30T22:36:00.168Z,27.82
2023-01-30T22:38:28.110Z,28.06
2023-01-30T22:41:02.286Z,27.58
2023-01-30T22:43:30.613Z,27.63
2023-01-30T22:46:03.832Z,27.68
2023-01-30T22:48:31.782Z,27.70
2023-01-30T22:51:03.494Z,27.86
2023-01-30T22:53:34.986Z,27.75
2023-01-30T22:56:04.016Z,27.83
2023-01-30T22:58:31.948Z,27.88
2023-01-30T23:01:08.544Z,27.99
2023-01-30T23:03:36.987Z,27.93
2023-01-30T23:06:05.946Z,27.71
2023-01-30T23:08:34.261Z,27.80
2023-01-30T23:11:08.439Z,27.75
2023-01-30T23:13:36.729Z,28.10
2023-01-30T23:16:05.918Z,27.72
2023-01-30T23:18:52.535Z,27.82
2023-01-30T23:21:20.415Z,27.74
2023-01-30T23:23:48.575Z,28.01
2023-01-30T23:26:16.455Z,27.76
2023-01-30T23:28:44.578Z,28.00
2023-01-30T23:31:16.301Z,28.01
2023-01-30T23:33:45.896Z,27.74
2023-01-30T23:36:14.664Z,27.90
2023-01-30T23:38:42.656Z,27.75
2023-01-30T23:41:12.603Z,28.11
2023-01-30T23:43:41.009Z,27.64
2023-01-30T23:46:14.239Z,27.92
2023-01-30T23:48:42.306Z,28.01
2023-01-30T23:51:11.652Z,27.86
2023-01-30T23:53:39.965Z,27.59
2023-01-30T23:56:08.650Z,28.00
2023-01-30T23:58:36.629Z,28.07
